sensor_id;sensor_type;location;lat;lon;timestamp;P1;durP1;ratioP1;P2;durP2;ratioP2
40955;SDS011;26687;48.254;11.454;2023-06-22T00:01:03;6.25;;;4.20;;
40955;SDS011;26687;48.254;11.454;2023-06-22T00:04:03;8.30;;;4.20;;
40955;SDS011;26687;48.254;11.454;2023-06-22T00:07:04;7.10;;;4.03;;
40955;SDS011;26687;48.254;11.454;2023-06-22T00:10:04;5.03;;;4.30;;
40955;SDS011;26687;48.254;11.454;2023-06-22T00:13:05;6.80;;;4.30;;
40955;SDS011;26687;48.254;11.454;2023-06-22T00:16:05;5.18;;;4.00;;
40955;SDS011;26687;48.254;11.454;2023-06-22T00:19:06;5.57;;;3.90;;
40955;SDS011;26687;48.254;11.454;2023-06-22T00:22:06;5.18;;;4.55;;
40955;SDS011;26687;48.254;11.454;2023-06-22T00:25:06;5.05;;;4.30;;
40955;SDS011;26687;48.254;11.454;2023-06-22T00:28:07;5.97;;;4.43;;
40955;SDS011;26687;48.254;11.454;2023-06-22T00:31:07;6.20;;;4.85;;
40955;SDS011;26687;48.254;11.454;2023-06-22T00:34:08;5.53;;;4.17;;
40955;SDS011;26687;48.254;11.454;2023-06-22T00:37:08;4.50;;;4.00;;
40955;SDS011;26687;48.254;11.454;2023-06-22T00:40:10;7.07;;;3.78;;
40955;SDS011;26687;48.254;11.454;2023-06-22T00:43:11;4.72;;;4.00;;
40955;SDS011;26687;48.254;11.454;2023-06-22T00:46:12;5.47;;;3.83;;
40955;SDS011;26687;48.254;11.454;2023-06-22T00:49:12;6.43;;;3.70;;
40955;SDS011;26687;48.254;11.454;2023-06-22T00:52:12;5.72;;;3.97;;
40955;SDS011;26687;48.254;11.454;2023-06-22T00:55:20;5.88;;;4.22;;
40955;SDS011;26687;48.254;11.454;2023-06-22T00:58:21;5.53;;;3.55;;
40955;SDS011;26687;48.254;11.454;2023-06-22T01:01:21;6.10;;;4.20;;
40955;SDS011;26687;48.254;11.454;2023-06-22T01:04:24;7.13;;;4.85;;
40955;SDS011;26687;48.254;11.454;2023-06-22T01:07:39;6.47;;;3.70;;
40955;SDS011;26687;48.254;11.454;2023-06-22T01:10:55;6.40;;;3.88;;
40955;SDS011;26687;48.254;11.454;2023-06-22T01:14:00;7.47;;;4.00;;
40955;SDS011;26687;48.254;11.454;2023-06-22T01:17:03;5.70;;;4.15;;
40955;SDS011;26687;48.254;11.454;2023-06-22T01:20:05;7.83;;;4.10;;
40955;SDS011;26687;48.254;11.454;2023-06-22T01:26:25;5.70;;;4.20;;
40955;SDS011;26687;48.254;11.454;2023-06-22T01:29:28;6.18;;;4.03;;
40955;SDS011;26687;48.254;11.454;2023-06-22T01:32:29;6.45;;;4.20;;
40955;SDS011;26687;48.254;11.454;2023-06-22T01:35:30;4.93;;;4.28;;
40955;SDS011;26687;48.254;11.454;2023-06-22T01:38:30;7.63;;;4.50;;
40955;SDS011;26687;48.254;11.454;2023-06-22T01:41:37;5.40;;;4.30;;
40955;SDS011;26687;48.254;11.454;2023-06-22T01:44:37;7.57;;;4.55;;
40955;SDS011;26687;48.254;11.454;2023-06-22T01:47:38;5.28;;;4.13;;
40955;SDS011;26687;48.254;11.454;2023-06-22T01:50:39;5.40;;;3.97;;
40955;SDS011;26687;48.254;11.454;2023-06-22T01:53:39;6.35;;;4.30;;
40955;SDS011;26687;48.254;11.454;2023-06-22T01:56:40;5.63;;;4.50;;
40955;SDS011;26687;48.254;11.454;2023-06-22T02:02:43;4.63;;;4.10;;
40955;SDS011;26687;48.254;11.454;2023-06-22T02:05:50;5.97;;;4.80;;
40955;SDS011;26687;48.254;11.454;2023-06-22T02:08:53;5.40;;;4.53;;
40955;SDS011;26687;48.254;11.454;2023-06-22T02:11:55;4.68;;;4.20;;
40955;SDS011;26687;48.254;11.454;2023-06-22T02:14:56;5.72;;;4.28;;
40955;SDS011;26687;48.254;11.454;2023-06-22T02:17:56;7.72;;;4.60;;
40955;SDS011;26687;48.254;11.454;2023-06-22T02:20:56;8.90;;;4.82;;
40955;SDS011;26687;48.254;11.454;2023-06-22T02:23:56;6.40;;;4.27;;
40955;SDS011;26687;48.254;11.454;2023-06-22T02:27:00;5.50;;;4.27;;
40955;SDS011;26687;48.254;11.454;2023-06-22T02:30:00;4.80;;;4.13;;
40955;SDS011;26687;48.254;11.454;2023-06-22T02:33:01;8.30;;;4.70;;
40955;SDS011;26687;48.254;11.454;2023-06-22T02:36:01;6.30;;;4.60;;
40955;SDS011;26687;48.254;11.454;2023-06-22T02:39:05;6.32;;;4.80;;
40955;SDS011;26687;48.254;11.454;2023-06-22T02:42:05;5.03;;;4.45;;
40955;SDS011;26687;48.254;11.454;2023-06-22T02:45:05;6.72;;;4.80;;
40955;SDS011;26687;48.254;11.454;2023-06-22T02:48:05;6.70;;;4.43;;
40955;SDS011;26687;48.254;11.454;2023-06-22T02:51:06;7.35;;;4.10;;
40955;SDS011;26687;48.254;11.454;2023-06-22T02:54:06;6.70;;;4.35;;
40955;SDS011;26687;48.254;11.454;2023-06-22T02:57:07;6.10;;;4.80;;
40955;SDS011;26687;48.254;11.454;2023-06-22T03:00:13;5.28;;;4.35;;
40955;SDS011;26687;48.254;11.454;2023-06-22T03:03:17;6.80;;;4.85;;
40955;SDS011;26687;48.254;11.454;2023-06-22T03:06:18;5.70;;;4.10;;
40955;SDS011;26687;48.254;11.454;2023-06-22T03:09:23;7.25;;;4.85;;
40955;SDS011;26687;48.254;11.454;2023-06-22T03:12:23;8.43;;;5.15;;
40955;SDS011;26687;48.254;11.454;2023-06-22T03:15:23;6.45;;;4.88;;
40955;SDS011;26687;48.254;11.454;2023-06-22T03:18:25;6.13;;;4.95;;
40955;SDS011;26687;48.254;11.454;2023-06-22T03:21:27;6.80;;;4.85;;
40955;SDS011;26687;48.254;11.454;2023-06-22T03:24:27;5.05;;;4.50;;
40955;SDS011;26687;48.254;11.454;2023-06-22T03:27:29;5.90;;;4.80;;
40955;SDS011;26687;48.254;11.454;2023-06-22T03:30:29;6.07;;;4.87;;
40955;SDS011;26687;48.254;11.454;2023-06-22T03:33:29;6.30;;;5.05;;
40955;SDS011;26687;48.254;11.454;2023-06-22T03:36:30;6.63;;;5.00;;
40955;SDS011;26687;48.254;11.454;2023-06-22T03:39:31;6.50;;;4.95;;
40955;SDS011;26687;48.254;11.454;2023-06-22T03:42:31;9.57;;;4.85;;
40955;SDS011;26687;48.254;11.454;2023-06-22T03:45:31;7.53;;;5.47;;
40955;SDS011;26687;48.254;11.454;2023-06-22T03:48:31;7.65;;;5.15;;
40955;SDS011;26687;48.254;11.454;2023-06-22T03:51:32;5.30;;;4.35;;
40955;SDS011;26687;48.254;11.454;2023-06-22T03:54:32;5.35;;;4.85;;
40955;SDS011;26687;48.254;11.454;2023-06-22T03:57:32;6.05;;;4.95;;
40955;SDS011;26687;48.254;11.454;2023-06-22T04:00:32;6.60;;;4.93;;
40955;SDS011;26687;48.254;11.454;2023-06-22T04:03:32;8.38;;;5.45;;
40955;SDS011;26687;48.254;11.454;2023-06-22T04:06:32;7.53;;;5.18;;
40955;SDS011;26687;48.254;11.454;2023-06-22T04:09:34;5.30;;;4.70;;
40955;SDS011;26687;48.254;11.454;2023-06-22T04:12:34;7.03;;;5.40;;
40955;SDS011;26687;48.254;11.454;2023-06-22T04:15:35;7.73;;;5.73;;
40955;SDS011;26687;48.254;11.454;2023-06-22T04:18:35;6.30;;;4.80;;
40955;SDS011;26687;48.254;11.454;2023-06-22T04:21:35;9.70;;;5.17;;
40955;SDS011;26687;48.254;11.454;2023-06-22T04:24:35;8.75;;;5.22;;
40955;SDS011;26687;48.254;11.454;2023-06-22T04:27:35;7.65;;;5.20;;
40955;SDS011;26687;48.254;11.454;2023-06-22T04:30:37;8.15;;;5.70;;
40955;SDS011;26687;48.254;11.454;2023-06-22T04:33:39;11.90;;;6.38;;
40955;SDS011;26687;48.254;11.454;2023-06-22T04:36:40;10.45;;;6.10;;
40955;SDS011;26687;48.254;11.454;2023-06-22T04:39:41;8.43;;;5.32;;
40955;SDS011;26687;48.254;11.454;2023-06-22T04:42:42;9.43;;;6.10;;
40955;SDS011;26687;48.254;11.454;2023-06-22T04:45:52;6.78;;;5.28;;
40955;SDS011;26687;48.254;11.454;2023-06-22T04:48:52;6.75;;;5.53;;
40955;SDS011;26687;48.254;11.454;2023-06-22T04:51:52;6.80;;;5.22;;
40955;SDS011;26687;48.254;11.454;2023-06-22T04:54:55;6.75;;;5.65;;
40955;SDS011;26687;48.254;11.454;2023-06-22T04:57:57;8.70;;;5.25;;
40955;SDS011;26687;48.254;11.454;2023-06-22T05:01:04;5.75;;;5.15;;
40955;SDS011;26687;48.254;11.454;2023-06-22T05:04:05;11.98;;;6.07;;
40955;SDS011;26687;48.254;11.454;2023-06-22T05:07:06;15.73;;;7.00;;
40955;SDS011;26687;48.254;11.454;2023-06-22T05:10:06;11.23;;;6.60;;
40955;SDS011;26687;48.254;11.454;2023-06-22T05:13:07;9.18;;;5.57;;
40955;SDS011;26687;48.254;11.454;2023-06-22T05:16:07;6.80;;;5.10;;
40955;SDS011;26687;48.254;11.454;2023-06-22T05:19:07;7.18;;;5.40;;
40955;SDS011;26687;48.254;11.454;2023-06-22T05:22:08;7.13;;;5.25;;
40955;SDS011;26687;48.254;11.454;2023-06-22T05:25:09;7.63;;;5.00;;
40955;SDS011;26687;48.254;11.454;2023-06-22T05:28:09;8.35;;;5.15;;
40955;SDS011;26687;48.254;11.454;2023-06-22T05:31:12;7.45;;;5.10;;
40955;SDS011;26687;48.254;11.454;2023-06-22T05:34:12;8.93;;;5.82;;
40955;SDS011;26687;48.254;11.454;2023-06-22T05:37:13;8.00;;;5.70;;
40955;SDS011;26687;48.254;11.454;2023-06-22T05:40:13;5.68;;;4.95;;
40955;SDS011;26687;48.254;11.454;2023-06-22T05:43:13;6.57;;;4.88;;
40955;SDS011;26687;48.254;11.454;2023-06-22T05:46:13;7.53;;;5.13;;
40955;SDS011;26687;48.254;11.454;2023-06-22T05:49:14;10.07;;;5.50;;
40955;SDS011;26687;48.254;11.454;2023-06-22T05:52:14;6.43;;;5.67;;
40955;SDS011;26687;48.254;11.454;2023-06-22T05:55:14;8.97;;;5.80;;
40955;SDS011;26687;48.254;11.454;2023-06-22T05:58:15;9.93;;;5.72;;
40955;SDS011;26687;48.254;11.454;2023-06-22T06:01:16;6.80;;;5.43;;
40955;SDS011;26687;48.254;11.454;2023-06-22T06:04:17;8.48;;;5.38;;
40955;SDS011;26687;48.254;11.454;2023-06-22T06:07:18;6.28;;;5.35;;
40955;SDS011;26687;48.254;11.454;2023-06-22T06:10:18;6.10;;;5.35;;
40955;SDS011;26687;48.254;11.454;2023-06-22T06:13:18;7.60;;;5.30;;
40955;SDS011;26687;48.254;11.454;2023-06-22T06:16:18;8.93;;;4.85;;
40955;SDS011;26687;48.254;11.454;2023-06-22T06:19:19;11.23;;;5.00;;
40955;SDS011;26687;48.254;11.454;2023-06-22T06:22:19;7.50;;;5.50;;
40955;SDS011;26687;48.254;11.454;2023-06-22T06:25:21;8.13;;;5.00;;
40955;SDS011;26687;48.254;11.454;2023-06-22T06:28:21;6.57;;;4.53;;
40955;SDS011;26687;48.254;11.454;2023-06-22T06:31:22;6.68;;;5.15;;
40955;SDS011;26687;48.254;11.454;2023-06-22T06:34:23;8.45;;;5.00;;
40955;SDS011;26687;48.254;11.454;2023-06-22T06:37:23;6.85;;;5.03;;
40955;SDS011;26687;48.254;11.454;2023-06-22T06:40:23;9.70;;;6.03;;
40955;SDS011;26687;48.254;11.454;2023-06-22T06:43:23;9.77;;;4.60;;
40955;SDS011;26687;48.254;11.454;2023-06-22T06:46:24;9.05;;;5.32;;
40955;SDS011;26687;48.254;11.454;2023-06-22T06:49:24;7.63;;;4.90;;
40955;SDS011;26687;48.254;11.454;2023-06-22T06:52:25;10.30;;;4.37;;
40955;SDS011;26687;48.254;11.454;2023-06-22T06:55:25;8.30;;;4.80;;
40955;SDS011;26687;48.254;11.454;2023-06-22T06:58:25;6.03;;;5.10;;
40955;SDS011;26687;48.254;11.454;2023-06-22T07:01:25;6.65;;;4.70;;
40955;SDS011;26687;48.254;11.454;2023-06-22T07:04:26;7.33;;;4.53;;
40955;SDS011;26687;48.254;11.454;2023-06-22T07:07:26;5.50;;;4.90;;
40955;SDS011;26687;48.254;11.454;2023-06-22T07:10:26;9.23;;;5.53;;
40955;SDS011;26687;48.254;11.454;2023-06-22T07:13:26;8.57;;;4.63;;
40955;SDS011;26687;48.254;11.454;2023-06-22T07:16:26;5.57;;;4.90;;
40955;SDS011;26687;48.254;11.454;2023-06-22T07:19:28;7.53;;;5.43;;
40955;SDS011;26687;48.254;11.454;2023-06-22T07:22:28;5.50;;;4.55;;
40955;SDS011;26687;48.254;11.454;2023-06-22T07:25:28;13.27;;;5.77;;
40955;SDS011;26687;48.254;11.454;2023-06-22T07:28:28;9.27;;;4.87;;
40955;SDS011;26687;48.254;11.454;2023-06-22T07:31:31;8.73;;;4.70;;
40955;SDS011;26687;48.254;11.454;2023-06-22T07:34:31;9.00;;;5.18;;
40955;SDS011;26687;48.254;11.454;2023-06-22T07:37:31;10.60;;;5.03;;
40955;SDS011;26687;48.254;11.454;2023-06-22T07:40:33;7.32;;;5.10;;
40955;SDS011;26687;48.254;11.454;2023-06-22T07:43:33;6.20;;;4.40;;
40955;SDS011;26687;48.254;11.454;2023-06-22T07:49:36;11.02;;;5.20;;
40955;SDS011;26687;48.254;11.454;2023-06-22T07:52:37;6.88;;;4.80;;
40955;SDS011;26687;48.254;11.454;2023-06-22T07:55:37;11.77;;;4.97;;
40955;SDS011;26687;48.254;11.454;2023-06-22T07:58:37;9.02;;;4.78;;
40955;SDS011;26687;48.254;11.454;2023-06-22T08:01:37;11.33;;;4.90;;
40955;SDS011;26687;48.254;11.454;2023-06-22T08:04:38;7.70;;;4.80;;
40955;SDS011;26687;48.254;11.454;2023-06-22T08:07:38;7.88;;;5.55;;
40955;SDS011;26687;48.254;11.454;2023-06-22T08:10:38;10.40;;;4.93;;
40955;SDS011;26687;48.254;11.454;2023-06-22T08:13:39;8.27;;;4.57;;
40955;SDS011;26687;48.254;11.454;2023-06-22T08:16:39;8.10;;;4.55;;
40955;SDS011;26687;48.254;11.454;2023-06-22T08:19:39;7.35;;;5.25;;
40955;SDS011;26687;48.254;11.454;2023-06-22T08:22:40;11.57;;;5.33;;
40955;SDS011;26687;48.254;11.454;2023-06-22T08:25:41;11.05;;;5.38;;
40955;SDS011;26687;48.254;11.454;2023-06-22T08:28:41;7.73;;;4.80;;
40955;SDS011;26687;48.254;11.454;2023-06-22T08:31:41;7.72;;;4.53;;
40955;SDS011;26687;48.254;11.454;2023-06-22T08:34:41;9.27;;;5.13;;
40955;SDS011;26687;48.254;11.454;2023-06-22T08:37:42;7.47;;;4.72;;
40955;SDS011;26687;48.254;11.454;2023-06-22T08:40:42;8.80;;;4.60;;
40955;SDS011;26687;48.254;11.454;2023-06-22T08:43:43;9.27;;;5.15;;
40955;SDS011;26687;48.254;11.454;2023-06-22T08:46:44;7.10;;;5.03;;
40955;SDS011;26687;48.254;11.454;2023-06-22T08:49:44;7.45;;;4.32;;
40955;SDS011;26687;48.254;11.454;2023-06-22T08:52:44;8.03;;;5.20;;
40955;SDS011;26687;48.254;11.454;2023-06-22T08:55:45;7.93;;;5.22;;
40955;SDS011;26687;48.254;11.454;2023-06-22T08:58:45;8.52;;;5.22;;
40955;SDS011;26687;48.254;11.454;2023-06-22T09:01:46;9.57;;;5.03;;
40955;SDS011;26687;48.254;11.454;2023-06-22T09:04:48;8.32;;;4.70;;
40955;SDS011;26687;48.254;11.454;2023-06-22T09:07:49;9.52;;;4.90;;
40955;SDS011;26687;48.254;11.454;2023-06-22T09:10:49;9.13;;;5.20;;
40955;SDS011;26687;48.254;11.454;2023-06-22T09:13:50;7.67;;;4.93;;
40955;SDS011;26687;48.254;11.454;2023-06-22T09:16:51;9.52;;;4.72;;
40955;SDS011;26687;48.254;11.454;2023-06-22T09:19:51;11.23;;;5.60;;
40955;SDS011;26687;48.254;11.454;2023-06-22T09:22:51;10.35;;;5.60;;
40955;SDS011;26687;48.254;11.454;2023-06-22T09:25:51;9.87;;;4.90;;
40955;SDS011;26687;48.254;11.454;2023-06-22T09:28:52;8.43;;;4.70;;
40955;SDS011;26687;48.254;11.454;2023-06-22T09:31:52;9.70;;;4.88;;
40955;SDS011;26687;48.254;11.454;2023-06-22T09:34:55;8.48;;;5.30;;
40955;SDS011;26687;48.254;11.454;2023-06-22T09:37:56;8.50;;;5.00;;
40955;SDS011;26687;48.254;11.454;2023-06-22T09:40:56;7.27;;;4.87;;
40955;SDS011;26687;48.254;11.454;2023-06-22T09:43:56;9.43;;;4.63;;
40955;SDS011;26687;48.254;11.454;2023-06-22T09:46:56;8.15;;;5.05;;
40955;SDS011;26687;48.254;11.454;2023-06-22T09:49:56;9.67;;;4.70;;
40955;SDS011;26687;48.254;11.454;2023-06-22T09:52:59;9.00;;;5.28;;
40955;SDS011;26687;48.254;11.454;2023-06-22T09:55:59;10.07;;;5.60;;
40955;SDS011;26687;48.254;11.454;2023-06-22T09:59:00;5.47;;;4.80;;
40955;SDS011;26687;48.254;11.454;2023-06-22T10:02:00;9.60;;;4.40;;
40955;SDS011;26687;48.254;11.454;2023-06-22T10:05:01;7.10;;;4.90;;
40955;SDS011;26687;48.254;11.454;2023-06-22T10:08:01;13.82;;;6.40;;
40955;SDS011;26687;48.254;11.454;2023-06-22T10:11:01;10.10;;;5.27;;
40955;SDS011;26687;48.254;11.454;2023-06-22T10:14:01;7.07;;;4.53;;
40955;SDS011;26687;48.254;11.454;2023-06-22T10:17:04;11.18;;;5.75;;
40955;SDS011;26687;48.254;11.454;2023-06-22T10:20:07;7.47;;;4.85;;
40955;SDS011;26687;48.254;11.454;2023-06-22T10:23:13;8.73;;;4.72;;
40955;SDS011;26687;48.254;11.454;2023-06-22T10:26:13;13.03;;;4.97;;
40955;SDS011;26687;48.254;11.454;2023-06-22T10:29:13;9.10;;;5.10;;
40955;SDS011;26687;48.254;11.454;2023-06-22T10:32:14;8.50;;;4.53;;
40955;SDS011;26687;48.254;11.454;2023-06-22T10:35:14;10.90;;;5.07;;
40955;SDS011;26687;48.254;11.454;2023-06-22T10:38:15;12.02;;;5.25;;
40955;SDS011;26687;48.254;11.454;2023-06-22T10:41:16;8.68;;;5.00;;
40955;SDS011;26687;48.254;11.454;2023-06-22T10:44:17;10.93;;;5.15;;
40955;SDS011;26687;48.254;11.454;2023-06-22T10:47:17;8.43;;;4.90;;
40955;SDS011;26687;48.254;11.454;2023-06-22T10:50:17;11.38;;;4.93;;
40955;SDS011;26687;48.254;11.454;2023-06-22T10:53:18;9.95;;;4.70;;
40955;SDS011;26687;48.254;11.454;2023-06-22T10:56:18;9.25;;;4.80;;
40955;SDS011;26687;48.254;11.454;2023-06-22T10:59:19;11.48;;;4.93;;
40955;SDS011;26687;48.254;11.454;2023-06-22T11:02:21;13.55;;;5.05;;
40955;SDS011;26687;48.254;11.454;2023-06-22T11:05:21;11.90;;;5.28;;
40955;SDS011;26687;48.254;11.454;2023-06-22T11:08:21;11.75;;;4.70;;
40955;SDS011;26687;48.254;11.454;2023-06-22T11:11:21;13.23;;;4.75;;
40955;SDS011;26687;48.254;11.454;2023-06-22T11:14:21;8.30;;;5.07;;
40955;SDS011;26687;48.254;11.454;2023-06-22T11:17:22;8.48;;;4.90;;
40955;SDS011;26687;48.254;11.454;2023-06-22T11:20:22;14.67;;;4.73;;
40955;SDS011;26687;48.254;11.454;2023-06-22T11:23:22;10.45;;;4.85;;
40955;SDS011;26687;48.254;11.454;2023-06-22T11:26:22;10.97;;;5.77;;
40955;SDS011;26687;48.254;11.454;2023-06-22T11:29:23;11.20;;;5.15;;
40955;SDS011;26687;48.254;11.454;2023-06-22T11:32:23;11.13;;;6.47;;
40955;SDS011;26687;48.254;11.454;2023-06-22T11:35:23;8.75;;;4.70;;
40955;SDS011;26687;48.254;11.454;2023-06-22T11:38:23;12.73;;;4.93;;
40955;SDS011;26687;48.254;11.454;2023-06-22T11:41:23;11.03;;;5.00;;
40955;SDS011;26687;48.254;11.454;2023-06-22T11:44:24;9.25;;;4.75;;
40955;SDS011;26687;48.254;11.454;2023-06-22T11:47:24;6.15;;;4.22;;
40955;SDS011;26687;48.254;11.454;2023-06-22T11:50:24;13.68;;;5.18;;
40955;SDS011;26687;48.254;11.454;2023-06-22T11:53:25;9.55;;;4.70;;
40955;SDS011;26687;48.254;11.454;2023-06-22T11:56:25;12.63;;;5.80;;
40955;SDS011;26687;48.254;11.454;2023-06-22T11:59:27;11.93;;;4.87;;
40955;SDS011;26687;48.254;11.454;2023-06-22T12:02:28;9.05;;;4.97;;
40955;SDS011;26687;48.254;11.454;2023-06-22T12:05:28;10.68;;;5.18;;
40955;SDS011;26687;48.254;11.454;2023-06-22T12:08:28;12.10;;;4.33;;
40955;SDS011;26687;48.254;11.454;2023-06-22T12:11:31;11.07;;;5.55;;
40955;SDS011;26687;48.254;11.454;2023-06-22T12:14:32;11.10;;;5.13;;
40955;SDS011;26687;48.254;11.454;2023-06-22T12:17:32;11.67;;;4.60;;
40955;SDS011;26687;48.254;11.454;2023-06-22T12:20:32;8.43;;;5.10;;
40955;SDS011;26687;48.254;11.454;2023-06-22T12:23:32;10.90;;;4.90;;
40955;SDS011;26687;48.254;11.454;2023-06-22T12:26:32;10.50;;;4.60;;
40955;SDS011;26687;48.254;11.454;2023-06-22T12:29:33;8.80;;;4.80;;
40955;SDS011;26687;48.254;11.454;2023-06-22T12:32:33;9.02;;;4.97;;
40955;SDS011;26687;48.254;11.454;2023-06-22T12:35:34;10.13;;;5.00;;
40955;SDS011;26687;48.254;11.454;2023-06-22T12:38:34;11.95;;;4.47;;
40955;SDS011;26687;48.254;11.454;2023-06-22T12:41:34;12.27;;;4.93;;
40955;SDS011;26687;48.254;11.454;2023-06-22T12:44:35;8.90;;;4.60;;
40955;SDS011;26687;48.254;11.454;2023-06-22T12:47:35;12.60;;;5.95;;
40955;SDS011;26687;48.254;11.454;2023-06-22T12:50:35;10.55;;;5.40;;
40955;SDS011;26687;48.254;11.454;2023-06-22T12:53:35;10.98;;;5.03;;
40955;SDS011;26687;48.254;11.454;2023-06-22T12:56:36;8.67;;;5.03;;
40955;SDS011;26687;48.254;11.454;2023-06-22T12:59:36;9.77;;;4.88;;
40955;SDS011;26687;48.254;11.454;2023-06-22T13:02:37;11.90;;;4.68;;
40955;SDS011;26687;48.254;11.454;2023-06-22T13:05:37;9.67;;;4.93;;
40955;SDS011;26687;48.254;11.454;2023-06-22T13:08:38;12.27;;;5.07;;
40955;SDS011;26687;48.254;11.454;2023-06-22T13:11:38;14.17;;;5.13;;
40955;SDS011;26687;48.254;11.454;2023-06-22T13:14:38;10.82;;;4.05;;
40955;SDS011;26687;48.254;11.454;2023-06-22T13:17:38;8.00;;;5.20;;
40955;SDS011;26687;48.254;11.454;2023-06-22T13:20:39;10.88;;;4.50;;
40955;SDS011;26687;48.254;11.454;2023-06-22T13:23:39;10.32;;;4.55;;
40955;SDS011;26687;48.254;11.454;2023-06-22T13:26:39;11.57;;;4.67;;
40955;SDS011;26687;48.254;11.454;2023-06-22T13:29:39;11.77;;;5.00;;
40955;SDS011;26687;48.254;11.454;2023-06-22T13:32:39;13.18;;;4.47;;
40955;SDS011;26687;48.254;11.454;2023-06-22T13:35:41;9.85;;;3.95;;
40955;SDS011;26687;48.254;11.454;2023-06-22T13:38:42;14.43;;;4.88;;
40955;SDS011;26687;48.254;11.454;2023-06-22T13:41:42;12.52;;;4.65;;
40955;SDS011;26687;48.254;11.454;2023-06-22T13:44:43;12.48;;;4.22;;
40955;SDS011;26687;48.254;11.454;2023-06-22T13:47:44;12.50;;;4.77;;
40955;SDS011;26687;48.254;11.454;2023-06-22T13:50:44;13.75;;;4.40;;
40955;SDS011;26687;48.254;11.454;2023-06-22T13:53:44;7.07;;;4.23;;
40955;SDS011;26687;48.254;11.454;2023-06-22T13:56:44;11.52;;;4.45;;
40955;SDS011;26687;48.254;11.454;2023-06-22T13:59:44;9.95;;;4.68;;
40955;SDS011;26687;48.254;11.454;2023-06-22T14:02:45;10.87;;;4.07;;
40955;SDS011;26687;48.254;11.454;2023-06-22T14:05:45;10.50;;;4.45;;
40955;SDS011;26687;48.254;11.454;2023-06-22T14:08:45;13.53;;;5.13;;
40955;SDS011;26687;48.254;11.454;2023-06-22T14:11:45;10.17;;;4.43;;
40955;SDS011;26687;48.254;11.454;2023-06-22T14:14:45;9.05;;;4.13;;
40955;SDS011;26687;48.254;11.454;2023-06-22T14:17:46;13.40;;;4.67;;
40955;SDS011;26687;48.254;11.454;2023-06-22T14:20:46;10.93;;;4.25;;
40955;SDS011;26687;48.254;11.454;2023-06-22T14:23:47;11.07;;;4.40;;
40955;SDS011;26687;48.254;11.454;2023-06-22T14:26:49;13.13;;;3.90;;
40955;SDS011;26687;48.254;11.454;2023-06-22T14:29:49;15.20;;;4.93;;
40955;SDS011;26687;48.254;11.454;2023-06-22T14:32:49;13.17;;;4.10;;
40955;SDS011;26687;48.254;11.454;2023-06-22T14:35:50;12.37;;;4.30;;
40955;SDS011;26687;48.254;11.454;2023-06-22T14:38:50;9.97;;;4.23;;
40955;SDS011;26687;48.254;11.454;2023-06-22T14:41:50;12.27;;;4.83;;
40955;SDS011;26687;48.254;11.454;2023-06-22T14:44:50;15.20;;;5.07;;
40955;SDS011;26687;48.254;11.454;2023-06-22T14:47:50;14.53;;;4.43;;
40955;SDS011;26687;48.254;11.454;2023-06-22T14:50:51;10.13;;;4.07;;
40955;SDS011;26687;48.254;11.454;2023-06-22T14:53:51;13.57;;;4.40;;
40955;SDS011;26687;48.254;11.454;2023-06-22T14:56:51;11.43;;;3.97;;
40955;SDS011;26687;48.254;11.454;2023-06-22T14:59:51;12.77;;;4.83;;
40955;SDS011;26687;48.254;11.454;2023-06-22T15:02:51;16.70;;;4.60;;
40955;SDS011;26687;48.254;11.454;2023-06-22T15:05:52;9.90;;;4.60;;
40955;SDS011;26687;48.254;11.454;2023-06-22T15:08:52;16.20;;;4.83;;
40955;SDS011;26687;48.254;11.454;2023-06-22T15:11:52;12.20;;;4.65;;
40955;SDS011;26687;48.254;11.454;2023-06-22T15:14:53;13.75;;;4.78;;
40955;SDS011;26687;48.254;11.454;2023-06-22T15:17:53;11.97;;;4.60;;
40955;SDS011;26687;48.254;11.454;2023-06-22T15:20:53;13.43;;;4.10;;
40955;SDS011;26687;48.254;11.454;2023-06-22T15:23:53;10.53;;;4.70;;
40955;SDS011;26687;48.254;11.454;2023-06-22T15:26:53;12.75;;;4.38;;
40955;SDS011;26687;48.254;11.454;2023-06-22T15:29:55;11.27;;;4.15;;
40955;SDS011;26687;48.254;11.454;2023-06-22T15:32:55;13.33;;;5.07;;
40955;SDS011;26687;48.254;11.454;2023-06-22T15:35:55;11.07;;;4.53;;
40955;SDS011;26687;48.254;11.454;2023-06-22T15:38:55;12.67;;;4.10;;
40955;SDS011;26687;48.254;11.454;2023-06-22T15:41:56;10.73;;;4.50;;
40955;SDS011;26687;48.254;11.454;2023-06-22T15:44:57;16.48;;;4.63;;
40955;SDS011;26687;48.254;11.454;2023-06-22T15:47:57;12.40;;;4.88;;
40955;SDS011;26687;48.254;11.454;2023-06-22T15:50:57;16.15;;;4.38;;
40955;SDS011;26687;48.254;11.454;2023-06-22T15:53:57;11.40;;;4.15;;
40955;SDS011;26687;48.254;11.454;2023-06-22T15:56:57;11.97;;;4.23;;
40955;SDS011;26687;48.254;11.454;2023-06-22T15:59:57;8.95;;;4.03;;
40955;SDS011;26687;48.254;11.454;2023-06-22T16:02:58;15.05;;;5.18;;
40955;SDS011;26687;48.254;11.454;2023-06-22T16:05:58;11.23;;;4.15;;
40955;SDS011;26687;48.254;11.454;2023-06-22T16:08:58;15.35;;;4.75;;
40955;SDS011;26687;48.254;11.454;2023-06-22T16:11:58;12.13;;;4.80;;
40955;SDS011;26687;48.254;11.454;2023-06-22T16:14:58;13.60;;;4.20;;
40955;SDS011;26687;48.254;11.454;2023-06-22T16:17:59;13.63;;;4.43;;
40955;SDS011;26687;48.254;11.454;2023-06-22T16:20:59;9.73;;;4.00;;
40955;SDS011;26687;48.254;11.454;2023-06-22T16:23:59;10.45;;;4.40;;
40955;SDS011;26687;48.254;11.454;2023-06-22T16:26:59;12.45;;;4.78;;
40955;SDS011;26687;48.254;11.454;2023-06-22T16:29:59;14.55;;;4.63;;
40955;SDS011;26687;48.254;11.454;2023-06-22T16:33:01;10.60;;;3.87;;
40955;SDS011;26687;48.254;11.454;2023-06-22T16:36:02;9.40;;;4.10;;
40955;SDS011;26687;48.254;11.454;2023-06-22T16:39:02;12.95;;;4.78;;
40955;SDS011;26687;48.254;11.454;2023-06-22T16:42:03;14.40;;;4.32;;
40955;SDS011;26687;48.254;11.454;2023-06-22T16:45:04;11.30;;;4.30;;
40955;SDS011;26687;48.254;11.454;2023-06-22T16:48:04;8.73;;;4.20;;
40955;SDS011;26687;48.254;11.454;2023-06-22T16:51:05;8.90;;;4.53;;
40955;SDS011;26687;48.254;11.454;2023-06-22T16:54:05;12.00;;;5.00;;
40955;SDS011;26687;48.254;11.454;2023-06-22T16:57:06;15.38;;;4.63;;
40955;SDS011;26687;48.254;11.454;2023-06-22T17:00:06;8.07;;;4.00;;
40955;SDS011;26687;48.254;11.454;2023-06-22T17:03:09;12.57;;;3.90;;
40955;SDS011;26687;48.254;11.454;2023-06-22T17:06:11;10.48;;;4.45;;
40955;SDS011;26687;48.254;11.454;2023-06-22T17:09:13;11.10;;;4.68;;
40955;SDS011;26687;48.254;11.454;2023-06-22T17:12:14;12.75;;;4.78;;
40955;SDS011;26687;48.254;11.454;2023-06-22T17:15:14;9.88;;;4.70;;
40955;SDS011;26687;48.254;11.454;2023-06-22T17:18:14;12.02;;;4.13;;
40955;SDS011;26687;48.254;11.454;2023-06-22T17:21:21;26.70;;;8.13;;
40955;SDS011;26687;48.254;11.454;2023-06-22T17:24:22;22.20;;;6.45;;
40955;SDS011;26687;48.254;11.454;2023-06-22T17:27:27;23.15;;;7.43;;
40955;SDS011;26687;48.254;11.454;2023-06-22T17:30:28;20.63;;;8.50;;
40955;SDS011;26687;48.254;11.454;2023-06-22T17:33:29;15.20;;;5.40;;
40955;SDS011;26687;48.254;11.454;2023-06-22T17:36:29;16.97;;;5.97;;
40955;SDS011;26687;48.254;11.454;2023-06-22T17:39:29;13.77;;;3.95;;
40955;SDS011;26687;48.254;11.454;2023-06-22T17:42:29;8.20;;;3.40;;
40955;SDS011;26687;48.254;11.454;2023-06-22T17:45:30;8.63;;;4.10;;
40955;SDS011;26687;48.254;11.454;2023-06-22T17:48:30;4.70;;;2.50;;
40955;SDS011;26687;48.254;11.454;2023-06-22T17:51:30;4.60;;;2.50;;
40955;SDS011;26687;48.254;11.454;2023-06-22T17:54:31;5.15;;;2.78;;